sensor_id;sensor_type;location;lat;lon;timestamp;P1;durP1;ratioP1;P2;durP2;ratioP2
6987;SDS011;3534;49.960;8.018;2024-03-07T00:01:10;36.20;;;21.03;;
6987;SDS011;3534;49.960;8.018;2024-03-07T00:03:38;33.03;;;18.93;;
6987;SDS011;3534;49.960;8.018;2024-03-07T00:06:05;31.20;;;17.83;;
6987;SDS011;3534;49.960;8.018;2024-03-07T00:08:33;32.50;;;19.50;;
6987;SDS011;3534;49.960;8.018;2024-03-07T00:11:01;39.23;;;20.80;;
6987;SDS011;3534;49.960;8.018;2024-03-07T00:13:28;39.87;;;21.43;;
6987;SDS011;3534;49.960;8.018;2024-03-07T00:15:55;32.37;;;19.27;;
6987;SDS011;3534;49.960;8.018;2024-03-07T00:18:22;31.83;;;18.70;;
6987;SDS011;3534;49.960;8.018;2024-03-07T00:20:50;33.73;;;19.40;;
6987;SDS011;3534;49.960;8.018;2024-03-07T00:23:17;33.97;;;20.20;;
6987;SDS011;3534;49.960;8.018;2024-03-07T00:25:44;35.63;;;20.13;;
6987;SDS011;3534;49.960;8.018;2024-03-07T00:28:11;31.50;;;20.27;;
6987;SDS011;3534;49.960;8.018;2024-03-07T00:30:38;31.53;;;19.20;;
6987;SDS011;3534;49.960;8.018;2024-03-07T00:33:04;30.37;;;18.63;;
6987;SDS011;3534;49.960;8.018;2024-03-07T00:35:33;33.83;;;18.57;;
6987;SDS011;3534;49.960;8.018;2024-03-07T00:38:01;31.60;;;18.40;;
6987;SDS011;3534;49.960;8.018;2024-03-07T00:40:27;32.30;;;18.90;;
6987;SDS011;3534;49.960;8.018;2024-03-07T00:42:54;27.20;;;17.10;;
6987;SDS011;3534;49.960;8.018;2024-03-07T00:45:21;30.87;;;17.07;;
6987;SDS011;3534;49.960;8.018;2024-03-07T00:47:48;37.47;;;19.20;;
6987;SDS011;3534;49.960;8.018;2024-03-07T00:50:15;28.60;;;17.80;;
6987;SDS011;3534;49.960;8.018;2024-03-07T00:52:41;30.57;;;17.23;;
6987;SDS011;3534;49.960;8.018;2024-03-07T00:55:09;32.17;;;18.27;;
6987;SDS011;3534;49.960;8.018;2024-03-07T00:57:36;31.53;;;18.67;;
6987;SDS011;3534;49.960;8.018;2024-03-07T01:00:03;32.07;;;18.40;;
6987;SDS011;3534;49.960;8.018;2024-03-07T01:02:30;33.20;;;18.73;;
6987;SDS011;3534;49.960;8.018;2024-03-07T01:04:57;31.57;;;18.30;;
6987;SDS011;3534;49.960;8.018;2024-03-07T01:07:24;29.70;;;17.83;;
6987;SDS011;3534;49.960;8.018;2024-03-07T01:09:53;30.80;;;18.30;;
6987;SDS011;3534;49.960;8.018;2024-03-07T01:12:21;35.07;;;20.07;;
6987;SDS011;3534;49.960;8.018;2024-03-07T01:14:49;32.00;;;18.37;;
6987;SDS011;3534;49.960;8.018;2024-03-07T01:17:16;29.37;;;18.33;;
6987;SDS011;3534;49.960;8.018;2024-03-07T01:19:42;26.50;;;16.90;;
6987;SDS011;3534;49.960;8.018;2024-03-07T01:22:09;36.47;;;18.77;;
6987;SDS011;3534;49.960;8.018;2024-03-07T01:24:36;29.33;;;17.23;;
6987;SDS011;3534;49.960;8.018;2024-03-07T01:27:02;30.10;;;17.27;;
6987;SDS011;3534;49.960;8.018;2024-03-07T01:29:30;33.13;;;18.37;;
6987;SDS011;3534;49.960;8.018;2024-03-07T01:31:57;28.40;;;18.43;;
6987;SDS011;3534;49.960;8.018;2024-03-07T01:34:24;35.53;;;20.20;;
6987;SDS011;3534;49.960;8.018;2024-03-07T01:36:50;30.17;;;18.90;;
6987;SDS011;3534;49.960;8.018;2024-03-07T01:39:17;32.43;;;18.50;;
6987;SDS011;3534;49.960;8.018;2024-03-07T01:41:44;29.90;;;16.93;;
6987;SDS011;3534;49.960;8.018;2024-03-07T01:44:11;31.20;;;18.60;;
6987;SDS011;3534;49.960;8.018;2024-03-07T01:46:39;28.43;;;17.87;;
6987;SDS011;3534;49.960;8.018;2024-03-07T01:49:07;32.00;;;18.30;;
6987;SDS011;3534;49.960;8.018;2024-03-07T01:51:34;28.87;;;18.63;;
6987;SDS011;3534;49.960;8.018;2024-03-07T01:54:02;34.50;;;17.97;;
6987;SDS011;3534;49.960;8.018;2024-03-07T01:56:29;35.00;;;18.20;;
6987;SDS011;3534;49.960;8.018;2024-03-07T01:58:56;33.80;;;17.93;;
6987;SDS011;3534;49.960;8.018;2024-03-07T02:01:24;29.60;;;18.80;;
6987;SDS011;3534;49.960;8.018;2024-03-07T02:03:52;39.17;;;18.97;;
6987;SDS011;3534;49.960;8.018;2024-03-07T02:06:19;29.80;;;17.57;;
6987;SDS011;3534;49.960;8.018;2024-03-07T02:08:46;35.20;;;19.80;;
6987;SDS011;3534;49.960;8.018;2024-03-07T02:11:12;34.07;;;18.40;;
6987;SDS011;3534;49.960;8.018;2024-03-07T02:13:39;29.03;;;17.60;;
6987;SDS011;3534;49.960;8.018;2024-03-07T02:16:06;29.97;;;18.10;;
6987;SDS011;3534;49.960;8.018;2024-03-07T02:18:33;38.37;;;19.00;;
6987;SDS011;3534;49.960;8.018;2024-03-07T02:21:06;29.53;;;19.30;;
6987;SDS011;3534;49.960;8.018;2024-03-07T02:23:34;31.10;;;18.77;;
6987;SDS011;3534;49.960;8.018;2024-03-07T02:26:01;26.43;;;16.83;;
6987;SDS011;3534;49.960;8.018;2024-03-07T02:28:28;32.00;;;19.30;;
6987;SDS011;3534;49.960;8.018;2024-03-07T02:30:54;33.67;;;20.17;;
6987;SDS011;3534;49.960;8.018;2024-03-07T02:33:21;35.47;;;20.70;;
6987;SDS011;3534;49.960;8.018;2024-03-07T02:35:48;35.07;;;19.57;;
6987;SDS011;3534;49.960;8.018;2024-03-07T02:38:16;32.90;;;19.47;;
6987;SDS011;3534;49.960;8.018;2024-03-07T02:40:44;44.53;;;18.13;;
6987;SDS011;3534;49.960;8.018;2024-03-07T02:43:12;29.90;;;19.17;;
6987;SDS011;3534;49.960;8.018;2024-03-07T02:45:38;29.53;;;18.27;;
6987;SDS011;3534;49.960;8.018;2024-03-07T02:48:05;33.10;;;19.93;;
6987;SDS011;3534;49.960;8.018;2024-03-07T02:50:34;36.70;;;19.87;;
6987;SDS011;3534;49.960;8.018;2024-03-07T02:53:02;31.73;;;17.33;;
6987;SDS011;3534;49.960;8.018;2024-03-07T02:55:30;34.93;;;19.67;;
6987;SDS011;3534;49.960;8.018;2024-03-07T02:57:58;29.97;;;18.00;;
6987;SDS011;3534;49.960;8.018;2024-03-07T03:00:25;32.80;;;19.33;;
6987;SDS011;3534;49.960;8.018;2024-03-07T03:02:54;39.37;;;20.63;;
6987;SDS011;3534;49.960;8.018;2024-03-07T03:05:22;31.30;;;19.20;;
6987;SDS011;3534;49.960;8.018;2024-03-07T03:07:48;32.23;;;18.97;;
6987;SDS011;3534;49.960;8.018;2024-03-07T03:10:21;30.43;;;19.07;;
6987;SDS011;3534;49.960;8.018;2024-03-07T03:12:52;37.40;;;18.30;;
6987;SDS011;3534;49.960;8.018;2024-03-07T03:15:19;32.80;;;19.10;;
6987;SDS011;3534;49.960;8.018;2024-03-07T03:17:46;32.87;;;19.67;;
6987;SDS011;3534;49.960;8.018;2024-03-07T03:20:13;35.80;;;20.00;;
6987;SDS011;3534;49.960;8.018;2024-03-07T03:22:49;29.37;;;19.53;;
6987;SDS011;3534;49.960;8.018;2024-03-07T03:25:16;31.47;;;19.50;;
6987;SDS011;3534;49.960;8.018;2024-03-07T03:27:43;33.40;;;19.40;;
6987;SDS011;3534;49.960;8.018;2024-03-07T03:30:12;34.77;;;20.30;;
6987;SDS011;3534;49.960;8.018;2024-03-07T03:32:39;35.50;;;20.13;;
6987;SDS011;3534;49.960;8.018;2024-03-07T03:35:06;36.83;;;20.27;;
6987;SDS011;3534;49.960;8.018;2024-03-07T03:37:38;33.53;;;19.47;;
6987;SDS011;3534;49.960;8.018;2024-03-07T03:40:05;31.00;;;19.80;;
6987;SDS011;3534;49.960;8.018;2024-03-07T03:42:34;39.10;;;20.67;;
6987;SDS011;3534;49.960;8.018;2024-03-07T03:45:01;38.30;;;19.73;;
6987;SDS011;3534;49.960;8.018;2024-03-07T03:47:32;34.50;;;20.80;;
6987;SDS011;3534;49.960;8.018;2024-03-07T03:50:00;34.20;;;20.17;;
6987;SDS011;3534;49.960;8.018;2024-03-07T03:52:28;35.83;;;21.23;;
6987;SDS011;3534;49.960;8.018;2024-03-07T03:54:55;30.87;;;19.40;;
6987;SDS011;3534;49.960;8.018;2024-03-07T03:57:22;35.67;;;20.87;;
6987;SDS011;3534;49.960;8.018;2024-03-07T03:59:49;34.70;;;20.53;;
6987;SDS011;3534;49.960;8.018;2024-03-07T04:02:15;33.30;;;20.57;;
6987;SDS011;3534;49.960;8.018;2024-03-07T04:04:44;35.67;;;20.23;;
6987;SDS011;3534;49.960;8.018;2024-03-07T04:07:11;31.77;;;19.60;;
6987;SDS011;3534;49.960;8.018;2024-03-07T04:09:38;31.10;;;19.13;;
6987;SDS011;3534;49.960;8.018;2024-03-07T04:12:05;32.77;;;19.27;;
6987;SDS011;3534;49.960;8.018;2024-03-07T04:14:35;35.63;;;21.43;;
6987;SDS011;3534;49.960;8.018;2024-03-07T04:17:02;36.90;;;21.33;;
6987;SDS011;3534;49.960;8.018;2024-03-07T04:19:31;48.10;;;22.80;;
6987;SDS011;3534;49.960;8.018;2024-03-07T04:22:00;42.20;;;22.30;;
6987;SDS011;3534;49.960;8.018;2024-03-07T04:24:28;38.07;;;21.53;;
6987;SDS011;3534;49.960;8.018;2024-03-07T04:26:55;42.97;;;23.37;;
6987;SDS011;3534;49.960;8.018;2024-03-07T04:29:21;37.77;;;21.20;;
6987;SDS011;3534;49.960;8.018;2024-03-07T04:31:48;37.60;;;22.00;;
6987;SDS011;3534;49.960;8.018;2024-03-07T04:34:15;41.80;;;22.30;;
6987;SDS011;3534;49.960;8.018;2024-03-07T04:36:42;48.87;;;23.43;;
6987;SDS011;3534;49.960;8.018;2024-03-07T04:39:10;41.93;;;21.77;;
6987;SDS011;3534;49.960;8.018;2024-03-07T04:41:47;38.57;;;21.73;;
6987;SDS011;3534;49.960;8.018;2024-03-07T04:44:14;42.93;;;20.60;;
6987;SDS011;3534;49.960;8.018;2024-03-07T04:46:41;36.50;;;20.70;;
6987;SDS011;3534;49.960;8.018;2024-03-07T04:49:09;33.77;;;21.97;;
6987;SDS011;3534;49.960;8.018;2024-03-07T04:51:36;33.03;;;19.77;;
6987;SDS011;3534;49.960;8.018;2024-03-07T04:54:02;38.73;;;21.43;;
6987;SDS011;3534;49.960;8.018;2024-03-07T04:56:30;37.93;;;20.53;;
6987;SDS011;3534;49.960;8.018;2024-03-07T04:58:57;34.40;;;19.13;;
6987;SDS011;3534;49.960;8.018;2024-03-07T05:01:24;40.57;;;19.50;;
6987;SDS011;3534;49.960;8.018;2024-03-07T05:03:51;35.90;;;22.53;;
6987;SDS011;3534;49.960;8.018;2024-03-07T05:06:18;38.93;;;21.20;;
6987;SDS011;3534;49.960;8.018;2024-03-07T05:08:46;38.10;;;21.87;;
6987;SDS011;3534;49.960;8.018;2024-03-07T05:11:12;38.87;;;20.77;;
6987;SDS011;3534;49.960;8.018;2024-03-07T05:13:40;39.23;;;22.13;;
6987;SDS011;3534;49.960;8.018;2024-03-07T05:16:07;34.37;;;21.53;;
6987;SDS011;3534;49.960;8.018;2024-03-07T05:18:34;35.87;;;21.37;;
6987;SDS011;3534;49.960;8.018;2024-03-07T05:21:01;33.23;;;20.20;;
6987;SDS011;3534;49.960;8.018;2024-03-07T05:23:48;37.03;;;22.37;;
6987;SDS011;3534;49.960;8.018;2024-03-07T05:26:15;33.80;;;21.30;;
6987;SDS011;3534;49.960;8.018;2024-03-07T05:28:43;36.20;;;21.07;;
6987;SDS011;3534;49.960;8.018;2024-03-07T05:31:09;37.30;;;20.70;;
6987;SDS011;3534;49.960;8.018;2024-03-07T05:33:37;39.50;;;22.03;;
6987;SDS011;3534;49.960;8.018;2024-03-07T05:36:05;36.80;;;20.83;;
6987;SDS011;3534;49.960;8.018;2024-03-07T05:38:39;35.60;;;21.13;;
6987;SDS011;3534;49.960;8.018;2024-03-07T05:41:08;42.70;;;22.53;;
6987;SDS011;3534;49.960;8.018;2024-03-07T05:43:35;45.33;;;20.63;;
6987;SDS011;3534;49.960;8.018;2024-03-07T05:46:03;37.47;;;21.10;;
6987;SDS011;3534;49.960;8.018;2024-03-07T05:48:32;40.57;;;22.57;;
6987;SDS011;3534;49.960;8.018;2024-03-07T05:50:59;39.30;;;23.07;;
6987;SDS011;3534;49.960;8.018;2024-03-07T05:53:26;41.37;;;22.70;;
6987;SDS011;3534;49.960;8.018;2024-03-07T05:55:52;41.90;;;23.00;;
6987;SDS011;3534;49.960;8.018;2024-03-07T05:58:19;35.70;;;20.83;;
6987;SDS011;3534;49.960;8.018;2024-03-07T06:00:46;36.67;;;20.07;;
6987;SDS011;3534;49.960;8.018;2024-03-07T06:03:16;39.00;;;20.80;;
6987;SDS011;3534;49.960;8.018;2024-03-07T06:05:44;36.00;;;20.47;;
6987;SDS011;3534;49.960;8.018;2024-03-07T06:08:13;35.53;;;20.23;;
6987;SDS011;3534;49.960;8.018;2024-03-07T06:10:41;31.53;;;18.80;;
6987;SDS011;3534;49.960;8.018;2024-03-07T06:13:08;33.40;;;19.60;;
6987;SDS011;3534;49.960;8.018;2024-03-07T06:15:36;31.60;;;18.70;;
6987;SDS011;3534;49.960;8.018;2024-03-07T06:18:03;30.43;;;19.80;;
6987;SDS011;3534;49.960;8.018;2024-03-07T06:20:32;40.20;;;20.17;;
6987;SDS011;3534;49.960;8.018;2024-03-07T06:23:00;36.07;;;18.73;;
6987;SDS011;3534;49.960;8.018;2024-03-07T06:25:29;30.40;;;18.93;;
6987;SDS011;3534;49.960;8.018;2024-03-07T06:28:01;31.17;;;18.57;;
6987;SDS011;3534;49.960;8.018;2024-03-07T06:30:34;29.40;;;19.47;;
6987;SDS011;3534;49.960;8.018;2024-03-07T06:33:02;37.37;;;21.93;;
6987;SDS011;3534;49.960;8.018;2024-03-07T06:35:29;40.73;;;22.13;;
6987;SDS011;3534;49.960;8.018;2024-03-07T06:37:57;44.57;;;22.77;;
6987;SDS011;3534;49.960;8.018;2024-03-07T06:40:23;39.83;;;22.03;;
6987;SDS011;3534;49.960;8.018;2024-03-07T06:42:50;38.33;;;20.53;;
6987;SDS011;3534;49.960;8.018;2024-03-07T06:45:17;32.83;;;19.20;;
6987;SDS011;3534;49.960;8.018;2024-03-07T06:47:44;37.17;;;20.13;;
6987;SDS011;3534;49.960;8.018;2024-03-07T06:50:12;31.67;;;17.67;;
6987;SDS011;3534;49.960;8.018;2024-03-07T06:52:44;30.80;;;20.13;;
6987;SDS011;3534;49.960;8.018;2024-03-07T06:55:13;35.40;;;20.80;;
6987;SDS011;3534;49.960;8.018;2024-03-07T06:57:41;30.23;;;18.10;;
6987;SDS011;3534;49.960;8.018;2024-03-07T07:00:09;35.80;;;19.50;;
6987;SDS011;3534;49.960;8.018;2024-03-07T07:02:37;30.43;;;19.27;;
6987;SDS011;3534;49.960;8.018;2024-03-07T07:05:04;35.37;;;19.37;;
6987;SDS011;3534;49.960;8.018;2024-03-07T07:07:36;32.90;;;18.33;;
6987;SDS011;3534;49.960;8.018;2024-03-07T07:10:03;32.83;;;19.47;;
6987;SDS011;3534;49.960;8.018;2024-03-07T07:12:34;37.03;;;18.67;;
6987;SDS011;3534;49.960;8.018;2024-03-07T07:15:01;30.27;;;18.23;;
6987;SDS011;3534;49.960;8.018;2024-03-07T07:17:28;30.80;;;18.50;;
6987;SDS011;3534;49.960;8.018;2024-03-07T07:19:57;29.33;;;17.93;;
6987;SDS011;3534;49.960;8.018;2024-03-07T07:22:24;34.60;;;20.50;;
6987;SDS011;3534;49.960;8.018;2024-03-07T07:24:51;41.47;;;18.77;;
6987;SDS011;3534;49.960;8.018;2024-03-07T07:27:18;30.67;;;17.23;;
6987;SDS011;3534;49.960;8.018;2024-03-07T07:29:46;33.40;;;19.30;;
6987;SDS011;3534;49.960;8.018;2024-03-07T07:32:13;29.63;;;16.30;;
6987;SDS011;3534;49.960;8.018;2024-03-07T07:34:39;30.20;;;15.73;;
6987;SDS011;3534;49.960;8.018;2024-03-07T07:37:07;22.57;;;14.20;;
6987;SDS011;3534;49.960;8.018;2024-03-07T07:39:35;24.57;;;14.93;;
6987;SDS011;3534;49.960;8.018;2024-03-07T07:42:01;26.73;;;15.27;;
6987;SDS011;3534;49.960;8.018;2024-03-07T07:44:29;21.90;;;13.90;;
6987;SDS011;3534;49.960;8.018;2024-03-07T07:46:57;25.07;;;14.20;;
6987;SDS011;3534;49.960;8.018;2024-03-07T07:49:23;24.17;;;15.30;;
6987;SDS011;3534;49.960;8.018;2024-03-07T07:51:50;29.17;;;15.70;;
6987;SDS011;3534;49.960;8.018;2024-03-07T07:54:18;27.97;;;15.73;;
6987;SDS011;3534;49.960;8.018;2024-03-07T07:56:45;23.90;;;14.53;;
6987;SDS011;3534;49.960;8.018;2024-03-07T07:59:13;26.73;;;15.73;;
6987;SDS011;3534;49.960;8.018;2024-03-07T08:01:40;26.13;;;17.10;;
6987;SDS011;3534;49.960;8.018;2024-03-07T08:04:08;23.10;;;14.73;;
6987;SDS011;3534;49.960;8.018;2024-03-07T08:06:36;22.53;;;14.83;;
6987;SDS011;3534;49.960;8.018;2024-03-07T08:09:03;27.77;;;15.03;;
6987;SDS011;3534;49.960;8.018;2024-03-07T08:11:32;24.80;;;16.07;;
6987;SDS011;3534;49.960;8.018;2024-03-07T08:13:59;25.07;;;14.80;;
6987;SDS011;3534;49.960;8.018;2024-03-07T08:16:26;26.60;;;15.30;;
6987;SDS011;3534;49.960;8.018;2024-03-07T08:18:52;26.13;;;14.60;;
6987;SDS011;3534;49.960;8.018;2024-03-07T08:21:22;22.80;;;14.93;;
6987;SDS011;3534;49.960;8.018;2024-03-07T08:23:49;23.53;;;15.57;;
6987;SDS011;3534;49.960;8.018;2024-03-07T08:26:15;25.80;;;15.67;;
6987;SDS011;3534;49.960;8.018;2024-03-07T08:28:42;23.20;;;14.47;;
6987;SDS011;3534;49.960;8.018;2024-03-07T08:31:09;24.03;;;14.87;;
6987;SDS011;3534;49.960;8.018;2024-03-07T08:33:35;26.47;;;15.77;;
6987;SDS011;3534;49.960;8.018;2024-03-07T08:36:02;21.97;;;13.53;;
6987;SDS011;3534;49.960;8.018;2024-03-07T08:38:31;23.83;;;13.27;;
6987;SDS011;3534;49.960;8.018;2024-03-07T08:40:58;25.50;;;15.40;;
6987;SDS011;3534;49.960;8.018;2024-03-07T08:43:25;21.27;;;14.60;;
6987;SDS011;3534;49.960;8.018;2024-03-07T08:45:52;20.73;;;13.13;;
6987;SDS011;3534;49.960;8.018;2024-03-07T08:48:19;25.33;;;14.40;;
6987;SDS011;3534;49.960;8.018;2024-03-07T08:50:47;19.73;;;12.70;;
6987;SDS011;3534;49.960;8.018;2024-03-07T08:53:13;16.60;;;11.90;;
6987;SDS011;3534;49.960;8.018;2024-03-07T08:55:42;20.63;;;13.20;;
6987;SDS011;3534;49.960;8.018;2024-03-07T08:58:09;24.17;;;14.17;;
6987;SDS011;3534;49.960;8.018;2024-03-07T09:00:35;27.50;;;14.00;;
6987;SDS011;3534;49.960;8.018;2024-03-07T09:03:02;24.37;;;12.90;;
6987;SDS011;3534;49.960;8.018;2024-03-07T09:05:34;22.90;;;14.47;;
6987;SDS011;3534;49.960;8.018;2024-03-07T09:08:01;21.47;;;13.80;;
6987;SDS011;3534;49.960;8.018;2024-03-07T09:10:28;22.00;;;14.60;;
6987;SDS011;3534;49.960;8.018;2024-03-07T09:12:57;20.83;;;13.90;;
6987;SDS011;3534;49.960;8.018;2024-03-07T09:15:23;25.63;;;14.63;;
6987;SDS011;3534;49.960;8.018;2024-03-07T09:17:50;19.53;;;13.30;;
6987;SDS011;3534;49.960;8.018;2024-03-07T09:20:17;23.87;;;13.10;;
6987;SDS011;3534;49.960;8.018;2024-03-07T09:22:45;23.27;;;14.60;;
6987;SDS011;3534;49.960;8.018;2024-03-07T09:25:13;24.40;;;13.43;;
6987;SDS011;3534;49.960;8.018;2024-03-07T09:27:41;22.43;;;13.40;;
6987;SDS011;3534;49.960;8.018;2024-03-07T09:30:09;18.83;;;12.43;;
6987;SDS011;3534;49.960;8.018;2024-03-07T09:32:39;24.03;;;13.27;;
6987;SDS011;3534;49.960;8.018;2024-03-07T09:35:07;20.07;;;13.47;;
6987;SDS011;3534;49.960;8.018;2024-03-07T09:37:36;18.60;;;12.63;;
6987;SDS011;3534;49.960;8.018;2024-03-07T09:40:05;22.80;;;13.70;;
6987;SDS011;3534;49.960;8.018;2024-03-07T09:42:34;23.00;;;14.13;;
6987;SDS011;3534;49.960;8.018;2024-03-07T09:45:03;23.67;;;13.63;;
6987;SDS011;3534;49.960;8.018;2024-03-07T09:47:33;24.77;;;14.07;;
6987;SDS011;3534;49.960;8.018;2024-03-07T09:50:00;19.53;;;12.77;;
6987;SDS011;3534;49.960;8.018;2024-03-07T09:52:28;19.87;;;12.97;;
6987;SDS011;3534;49.960;8.018;2024-03-07T09:54:55;19.87;;;13.53;;
6987;SDS011;3534;49.960;8.018;2024-03-07T09:57:24;19.73;;;13.40;;
6987;SDS011;3534;49.960;8.018;2024-03-07T09:59:52;22.53;;;13.23;;
6987;SDS011;3534;49.960;8.018;2024-03-07T10:02:20;26.20;;;14.70;;
6987;SDS011;3534;49.960;8.018;2024-03-07T10:04:51;21.60;;;14.10;;
6987;SDS011;3534;49.960;8.018;2024-03-07T10:07:20;22.93;;;13.70;;
6987;SDS011;3534;49.960;8.018;2024-03-07T10:09:48;23.73;;;15.23;;
6987;SDS011;3534;49.960;8.018;2024-03-07T10:12:16;20.57;;;14.03;;
6987;SDS011;3534;49.960;8.018;2024-03-07T10:14:55;23.60;;;14.13;;
6987;SDS011;3534;49.960;8.018;2024-03-07T10:17:23;23.10;;;14.50;;
6987;SDS011;3534;49.960;8.018;2024-03-07T10:19:52;23.53;;;13.67;;
6987;SDS011;3534;49.960;8.018;2024-03-07T10:22:19;23.73;;;13.40;;
6987;SDS011;3534;49.960;8.018;2024-03-07T10:24:50;26.17;;;15.43;;
6987;SDS011;3534;49.960;8.018;2024-03-07T10:27:17;24.03;;;15.30;;
6987;SDS011;3534;49.960;8.018;2024-03-07T10:29:46;25.80;;;16.33;;
6987;SDS011;3534;49.960;8.018;2024-03-07T10:32:13;23.57;;;14.23;;
6987;SDS011;3534;49.960;8.018;2024-03-07T10:34:39;26.67;;;16.23;;
6987;SDS011;3534;49.960;8.018;2024-03-07T10:37:12;22.50;;;14.27;;
6987;SDS011;3534;49.960;8.018;2024-03-07T10:39:41;23.80;;;15.33;;
6987;SDS011;3534;49.960;8.018;2024-03-07T10:42:08;21.10;;;14.10;;
6987;SDS011;3534;49.960;8.018;2024-03-07T10:44:42;21.27;;;13.90;;
6987;SDS011;3534;49.960;8.018;2024-03-07T10:47:11;27.03;;;15.13;;
6987;SDS011;3534;49.960;8.018;2024-03-07T10:49:46;22.47;;;15.47;;
6987;SDS011;3534;49.960;8.018;2024-03-07T10:52:23;22.20;;;13.83;;
6987;SDS011;3534;49.960;8.018;2024-03-07T10:54:56;30.43;;;14.97;;
6987;SDS011;3534;49.960;8.018;2024-03-07T10:57:36;25.80;;;16.10;;
6987;SDS011;3534;49.960;8.018;2024-03-07T11:00:07;27.50;;;16.10;;
6987;SDS011;3534;49.960;8.018;2024-03-07T11:02:54;28.73;;;16.90;;
6987;SDS011;3534;49.960;8.018;2024-03-07T11:05:23;22.10;;;14.77;;
6987;SDS011;3534;49.960;8.018;2024-03-07T11:07:55;22.77;;;14.60;;
6987;SDS011;3534;49.960;8.018;2024-03-07T11:10:24;23.80;;;14.00;;
6987;SDS011;3534;49.960;8.018;2024-03-07T11:12:51;23.60;;;14.83;;
6987;SDS011;3534;49.960;8.018;2024-03-07T11:15:19;25.50;;;14.73;;
6987;SDS011;3534;49.960;8.018;2024-03-07T11:17:47;25.23;;;15.23;;
6987;SDS011;3534;49.960;8.018;2024-03-07T11:20:19;22.97;;;15.23;;
6987;SDS011;3534;49.960;8.018;2024-03-07T11:22:47;23.30;;;14.97;;
6987;SDS011;3534;49.960;8.018;2024-03-07T11:25:16;24.50;;;14.67;;
6987;SDS011;3534;49.960;8.018;2024-03-07T11:27:50;21.77;;;14.60;;
6987;SDS011;3534;49.960;8.018;2024-03-07T11:30:18;24.77;;;14.57;;
6987;SDS011;3534;49.960;8.018;2024-03-07T11:32:47;26.60;;;15.97;;
6987;SDS011;3534;49.960;8.018;2024-03-07T11:35:15;27.03;;;16.13;;
6987;SDS011;3534;49.960;8.018;2024-03-07T11:37:47;21.50;;;13.67;;
6987;SDS011;3534;49.960;8.018;2024-03-07T11:43:16;24.40;;;14.07;;
6987;SDS011;3534;49.960;8.018;2024-03-07T11:45:42;19.37;;;13.90;;
6987;SDS011;3534;49.960;8.018;2024-03-07T11:48:17;25.10;;;15.70;;
6987;SDS011;3534;49.960;8.018;2024-03-07T11:50:45;23.03;;;15.57;;
6987;SDS011;3534;49.960;8.018;2024-03-07T11:53:14;19.77;;;14.03;;
6987;SDS011;3534;49.960;8.018;2024-03-07T11:55:42;22.53;;;14.60;;
6987;SDS011;3534;49.960;8.018;2024-03-07T11:58:11;22.07;;;14.27;;
6987;SDS011;3534;49.960;8.018;2024-03-07T12:00:41;21.43;;;13.87;;
6987;SDS011;3534;49.960;8.018;2024-03-07T12:03:10;23.37;;;15.70;;
6987;SDS011;3534;49.960;8.018;2024-03-07T12:05:38;25.23;;;14.97;;
6987;SDS011;3534;49.960;8.018;2024-03-07T12:08:06;22.37;;;14.30;;
6987;SDS011;3534;49.960;8.018;2024-03-07T12:10:34;23.13;;;14.80;;
6987;SDS011;3534;49.960;8.018;2024-03-07T12:13:03;22.37;;;14.23;;
6987;SDS011;3534;49.960;8.018;2024-03-07T12:15:32;18.57;;;13.57;;
6987;SDS011;3534;49.960;8.018;2024-03-07T12:18:00;23.20;;;12.97;;
6987;SDS011;3534;49.960;8.018;2024-03-07T12:20:33;25.50;;;14.80;;
6987;SDS011;3534;49.960;8.018;2024-03-07T12:23:01;19.27;;;13.13;;
6987;SDS011;3534;49.960;8.018;2024-03-07T12:25:28;22.30;;;14.70;;
6987;SDS011;3534;49.960;8.018;2024-03-07T12:27:59;22.67;;;14.63;;
6987;SDS011;3534;49.960;8.018;2024-03-07T12:30:30;24.07;;;14.70;;
6987;SDS011;3534;49.960;8.018;2024-03-07T12:33:00;22.90;;;13.60;;
6987;SDS011;3534;49.960;8.018;2024-03-07T12:35:29;24.83;;;15.30;;
6987;SDS011;3534;49.960;8.018;2024-03-07T12:37:56;22.70;;;13.43;;
6987;SDS011;3534;49.960;8.018;2024-03-07T12:40:24;16.40;;;12.83;;
6987;SDS011;3534;49.960;8.018;2024-03-07T12:42:54;19.83;;;13.30;;
6987;SDS011;3534;49.960;8.018;2024-03-07T12:45:20;19.10;;;13.03;;
6987;SDS011;3534;49.960;8.018;2024-03-07T12:47:51;21.13;;;14.00;;
6987;SDS011;3534;49.960;8.018;2024-03-07T12:50:19;20.60;;;14.00;;
6987;SDS011;3534;49.960;8.018;2024-03-07T12:52:46;20.97;;;14.80;;
6987;SDS011;3534;49.960;8.018;2024-03-07T12:55:14;23.30;;;14.27;;
6987;SDS011;3534;49.960;8.018;2024-03-07T12:57:43;20.93;;;13.50;;
6987;SDS011;3534;49.960;8.018;2024-03-07T13:00:10;16.97;;;12.00;;
6987;SDS011;3534;49.960;8.018;2024-03-07T13:02:44;23.27;;;12.20;;
6987;SDS011;3534;49.960;8.018;2024-03-07T13:07:42;17.17;;;12.00;;
6987;SDS011;3534;49.960;8.018;2024-03-07T13:10:09;25.57;;;13.70;;
6987;SDS011;3534;49.960;8.018;2024-03-07T13:12:39;20.00;;;12.40;;
6987;SDS011;3534;49.960;8.018;2024-03-07T13:15:08;19.47;;;13.43;;
6987;SDS011;3534;49.960;8.018;2024-03-07T13:17:36;19.50;;;13.03;;
6987;SDS011;3534;49.960;8.018;2024-03-07T13:20:03;19.30;;;11.97;;
6987;SDS011;3534;49.960;8.018;2024-03-07T13:22:36;18.27;;;12.73;;
6987;SDS011;3534;49.960;8.018;2024-03-07T13:25:05;20.13;;;14.13;;
6987;SDS011;3534;49.960;8.018;2024-03-07T13:27:39;21.97;;;12.97;;
6987;SDS011;3534;49.960;8.018;2024-03-07T13:30:09;16.53;;;12.20;;
6987;SDS011;3534;49.960;8.018;2024-03-07T13:32:49;18.87;;;12.60;;
6987;SDS011;3534;49.960;8.018;2024-03-07T13:35:17;18.27;;;11.83;;
6987;SDS011;3534;49.960;8.018;2024-03-07T13:37:45;14.77;;;10.23;;
6987;SDS011;3534;49.960;8.018;2024-03-07T13:40:14;15.93;;;11.13;;
6987;SDS011;3534;49.960;8.018;2024-03-07T13:42:51;17.07;;;12.00;;
6987;SDS011;3534;49.960;8.018;2024-03-07T13:45:20;17.87;;;11.80;;
6987;SDS011;3534;49.960;8.018;2024-03-07T13:47:48;21.60;;;12.53;;
6987;SDS011;3534;49.960;8.018;2024-03-07T13:50:15;19.67;;;11.83;;
6987;SDS011;3534;49.960;8.018;2024-03-07T13:52:44;15.83;;;10.87;;
6987;SDS011;3534;49.960;8.018;2024-03-07T13:55:31;16.03;;;10.70;;
6987;SDS011;3534;49.960;8.018;2024-03-07T13:58:02;16.20;;;10.67;;
6987;SDS011;3534;49.960;8.018;2024-03-07T14:00:39;19.43;;;12.50;;
6987;SDS011;3534;49.960;8.018;2024-03-07T14:06:10;14.90;;;10.50;;
6987;SDS011;3534;49.960;8.018;2024-03-07T14:08:49;14.03;;;9.67;;
6987;SDS011;3534;49.960;8.018;2024-03-07T14:11:53;15.00;;;10.70;;
6987;SDS011;3534;49.960;8.018;2024-03-07T14:18:18;15.27;;;10.00;;
6987;SDS011;3534;49.960;8.018;2024-03-07T14:27:27;12.90;;;9.17;;
6987;SDS011;3534;49.960;8.018;2024-03-07T14:30:08;17.30;;;10.33;;
6987;SDS011;3534;49.960;8.018;2024-03-07T14:32:51;13.43;;;8.70;;
6987;SDS011;3534;49.960;8.018;2024-03-07T14:35:23;15.97;;;9.90;;
6987;SDS011;3534;49.960;8.018;2024-03-07T14:37:55;13.50;;;8.80;;
6987;SDS011;3534;49.960;8.018;2024-03-07T14:40:30;14.90;;;8.70;;
6987;SDS011;3534;49.960;8.018;2024-03-07T14:43:00;15.73;;;9.30;;
6987;SDS011;3534;49.960;8.018;2024-03-07T14:45:30;11.00;;;8.90;;
6987;SDS011;3534;49.960;8.018;2024-03-07T14:48:01;13.77;;;9.67;;
6987;SDS011;3534;49.960;8.018;2024-03-07T14:50:29;14.77;;;9.40;;
6987;SDS011;3534;49.960;8.018;2024-03-07T14:52:58;12.17;;;8.60;;
6987;SDS011;3534;49.960;8.018;2024-03-07T14:55:24;13.77;;;9.67;;
6987;SDS011;3534;49.960;8.018;2024-03-07T14:57:52;14.17;;;9.60;;
6987;SDS011;3534;49.960;8.018;2024-03-07T15:00:20;14.00;;;8.87;;
6987;SDS011;3534;49.960;8.018;2024-03-07T15:02:52;12.77;;;9.47;;
6987;SDS011;3534;49.960;8.018;2024-03-07T15:05:22;13.40;;;9.20;;
6987;SDS011;3534;49.960;8.018;2024-03-07T15:07:49;12.20;;;8.43;;
6987;SDS011;3534;49.960;8.018;2024-03-07T15:10:17;19.70;;;9.30;;
6987;SDS011;3534;49.960;8.018;2024-03-07T15:12:51;13.67;;;9.33;;
6987;SDS011;3534;49.960;8.018;2024-03-07T15:15:20;14.90;;;8.77;;